sensor_id;sensor_type;location;lat;lon;timestamp;temperature;humidity
39779;DHT22;25454;49.878;8.618;2022-10-24T00:02:43;14.40;99.90
39779;DHT22;25454;49.878;8.618;2022-10-24T00:07:43;14.30;99.90
39779;DHT22;25454;49.878;8.618;2022-10-24T00:12:44;14.30;99.90
39779;DHT22;25454;49.878;8.618;2022-10-24T00:17:45;14.20;99.90
39779;DHT22;25454;49.878;8.618;2022-10-24T00:22:45;14.10;99.90
39779;DHT22;25454;49.878;8.618;2022-10-24T00:27:46;14.00;99.90
39779;DHT22;25454;49.878;8.618;2022-10-24T00:32:46;14.00;99.90
39779;DHT22;25454;49.878;8.618;2022-10-24T00:37:47;14.00;99.90
39779;DHT22;25454;49.878;8.618;2022-10-24T00:42:48;13.90;99.90
39779;DHT22;25454;49.878;8.618;2022-10-24T00:47:49;13.80;99.90
39779;DHT22;25454;49.878;8.618;2022-10-24T00:52:49;13.80;99.90
39779;DHT22;25454;49.878;8.618;2022-10-24T00:57:52;13.70;99.90
39779;DHT22;25454;49.878;8.618;2022-10-24T01:02:54;13.60;99.90
39779;DHT22;25454;49.878;8.618;2022-10-24T01:08:20;13.50;99.90
39779;DHT22;25454;49.878;8.618;2022-10-24T01:13:50;13.50;99.90
39779;DHT22;25454;49.878;8.618;2022-10-24T01:30:03;13.30;99.90
39779;DHT22;25454;49.878;8.618;2022-10-24T01:40:34;13.20;99.90
39779;DHT22;25454;49.878;8.618;2022-10-24T01:45:39;13.20;99.90
39779;DHT22;25454;49.878;8.618;2022-10-24T01:50:44;13.20;99.90
39779;DHT22;25454;49.878;8.618;2022-10-24T01:55:46;13.10;99.90
39779;DHT22;25454;49.878;8.618;2022-10-24T02:00:49;13.20;99.90
39779;DHT22;25454;49.878;8.618;2022-10-24T02:05:55;13.30;99.90
39779;DHT22;25454;49.878;8.618;2022-10-24T02:11:01;13.40;99.90
39779;DHT22;25454;49.878;8.618;2022-10-24T02:16:03;13.50;99.90
39779;DHT22;25454;49.878;8.618;2022-10-24T02:21:23;13.70;99.90
39779;DHT22;25454;49.878;8.618;2022-10-24T02:31:42;14.00;99.90
39779;DHT22;25454;49.878;8.618;2022-10-24T02:36:47;14.00;99.90
39779;DHT22;25454;49.878;8.618;2022-10-24T02:41:50;14.00;99.90
39779;DHT22;25454;49.878;8.618;2022-10-24T02:46:56;14.00;99.90
39779;DHT22;25454;49.878;8.618;2022-10-24T02:51:58;14.00;99.90
39779;DHT22;25454;49.878;8.618;2022-10-24T02:57:00;14.00;99.90
39779;DHT22;25454;49.878;8.618;2022-10-24T03:02:01;14.00;99.90
39779;DHT22;25454;49.878;8.618;2022-10-24T03:07:02;13.90;99.90
39779;DHT22;25454;49.878;8.618;2022-10-24T03:12:03;13.90;99.90
39779;DHT22;25454;49.878;8.618;2022-10-24T03:17:03;13.90;99.90
39779;DHT22;25454;49.878;8.618;2022-10-24T03:22:07;14.00;99.90
39779;DHT22;25454;49.878;8.618;2022-10-24T03:27:07;14.00;99.90
39779;DHT22;25454;49.878;8.618;2022-10-24T03:32:08;14.10;99.90
39779;DHT22;25454;49.878;8.618;2022-10-24T03:37:09;14.30;99.90
39779;DHT22;25454;49.878;8.618;2022-10-24T03:42:10;14.50;99.90
39779;DHT22;25454;49.878;8.618;2022-10-24T03:47:10;14.60;99.90
39779;DHT22;25454;49.878;8.618;2022-10-24T03:52:12;14.80;99.90
39779;DHT22;25454;49.878;8.618;2022-10-24T03:57:12;14.90;99.90
39779;DHT22;25454;49.878;8.618;2022-10-24T04:02:13;14.90;99.90
39779;DHT22;25454;49.878;8.618;2022-10-24T04:07:13;14.90;99.90
39779;DHT22;25454;49.878;8.618;2022-10-24T04:12:14;15.00;99.90
39779;DHT22;25454;49.878;8.618;2022-10-24T04:17:15;15.00;99.90
39779;DHT22;25454;49.878;8.618;2022-10-24T04:22:21;15.00;99.90
39779;DHT22;25454;49.878;8.618;2022-10-24T04:27:22;14.90;99.90
39779;DHT22;25454;49.878;8.618;2022-10-24T04:32:23;14.80;99.90
39779;DHT22;25454;49.878;8.618;2022-10-24T04:37:23;14.70;99.90
39779;DHT22;25454;49.878;8.618;2022-10-24T04:42:24;14.70;99.90
39779;DHT22;25454;49.878;8.618;2022-10-24T04:47:25;14.70;99.90
39779;DHT22;25454;49.878;8.618;2022-10-24T04:52:25;14.90;99.90
39779;DHT22;25454;49.878;8.618;2022-10-24T04:57:26;15.00;99.90
39779;DHT22;25454;49.878;8.618;2022-10-24T05:02:26;15.10;99.90
39779;DHT22;25454;49.878;8.618;2022-10-24T05:07:27;15.20;99.90
39779;DHT22;25454;49.878;8.618;2022-10-24T05:12:28;15.20;99.90
39779;DHT22;25454;49.878;8.618;2022-10-24T05:17:28;15.30;99.90
39779;DHT22;25454;49.878;8.618;2022-10-24T05:22:29;15.10;99.90
39779;DHT22;25454;49.878;8.618;2022-10-24T05:27:30;15.00;99.90
39779;DHT22;25454;49.878;8.618;2022-10-24T05:32:30;15.00;99.90
39779;DHT22;25454;49.878;8.618;2022-10-24T05:37:31;15.00;99.90
39779;DHT22;25454;49.878;8.618;2022-10-24T05:42:32;15.10;99.90
39779;DHT22;25454;49.878;8.618;2022-10-24T05:47:32;15.10;99.90
39779;DHT22;25454;49.878;8.618;2022-10-24T05:52:33;15.30;99.90
39779;DHT22;25454;49.878;8.618;2022-10-24T05:57:36;15.30;99.90
39779;DHT22;25454;49.878;8.618;2022-10-24T06:02:38;15.20;99.90
39779;DHT22;25454;49.878;8.618;2022-10-24T06:07:39;15.10;99.90
39779;DHT22;25454;49.878;8.618;2022-10-24T06:12:41;15.10;99.90
39779;DHT22;25454;49.878;8.618;2022-10-24T06:17:42;15.20;99.90
39779;DHT22;25454;49.878;8.618;2022-10-24T06:22:42;15.20;99.90
39779;DHT22;25454;49.878;8.618;2022-10-24T06:27:46;15.30;99.90
39779;DHT22;25454;49.878;8.618;2022-10-24T06:32:47;15.40;99.90
39779;DHT22;25454;49.878;8.618;2022-10-24T06:37:48;15.50;99.90
39779;DHT22;25454;49.878;8.618;2022-10-24T06:42:49;15.70;99.90
39779;DHT22;25454;49.878;8.618;2022-10-24T06:47:50;15.80;99.90
39779;DHT22;25454;49.878;8.618;2022-10-24T06:52:51;15.90;99.90
39779;DHT22;25454;49.878;8.618;2022-10-24T06:57:53;16.00;99.90
39779;DHT22;25454;49.878;8.618;2022-10-24T07:02:53;16.10;99.90
39779;DHT22;25454;49.878;8.618;2022-10-24T07:07:54;16.20;99.90
39779;DHT22;25454;49.878;8.618;2022-10-24T07:12:55;16.30;99.90
39779;DHT22;25454;49.878;8.618;2022-10-24T07:17:56;16.40;99.90
39779;DHT22;25454;49.878;8.618;2022-10-24T07:22:56;16.50;99.90
39779;DHT22;25454;49.878;8.618;2022-10-24T07:27:57;16.60;99.90
39779;DHT22;25454;49.878;8.618;2022-10-24T07:32:58;16.70;99.90
39779;DHT22;25454;49.878;8.618;2022-10-24T07:37:59;16.80;99.90
39779;DHT22;25454;49.878;8.618;2022-10-24T07:42:59;16.90;99.90
39779;DHT22;25454;49.878;8.618;2022-10-24T07:48:00;16.90;99.90
39779;DHT22;25454;49.878;8.618;2022-10-24T07:53:05;17.00;99.90
39779;DHT22;25454;49.878;8.618;2022-10-24T07:58:06;17.10;99.90
39779;DHT22;25454;49.878;8.618;2022-10-24T08:03:06;17.20;99.90
39779;DHT22;25454;49.878;8.618;2022-10-24T08:08:07;17.40;99.90
39779;DHT22;25454;49.878;8.618;2022-10-24T08:13:08;17.60;99.90
39779;DHT22;25454;49.878;8.618;2022-10-24T08:18:08;17.70;99.90
39779;DHT22;25454;49.878;8.618;2022-10-24T08:23:09;18.00;99.90
39779;DHT22;25454;49.878;8.618;2022-10-24T08:28:10;18.30;99.90
39779;DHT22;25454;49.878;8.618;2022-10-24T08:33:11;18.90;99.90
39779;DHT22;25454;49.878;8.618;2022-10-24T08:38:12;19.20;99.90
39779;DHT22;25454;49.878;8.618;2022-10-24T08:43:12;19.10;99.90
39779;DHT22;25454;49.878;8.618;2022-10-24T08:48:16;18.80;99.90
39779;DHT22;25454;49.878;8.618;2022-10-24T08:53:24;18.60;99.90
39779;DHT22;25454;49.878;8.618;2022-10-24T08:58:42;18.50;99.90
39779;DHT22;25454;49.878;8.618;2022-10-24T09:03:46;18.50;99.90
39779;DHT22;25454;49.878;8.618;2022-10-24T09:09:15;19.70;99.90
39779;DHT22;25454;49.878;8.618;2022-10-24T09:14:24;23.20;99.90
39779;DHT22;25454;49.878;8.618;2022-10-24T09:19:27;26.30;99.90
39779;DHT22;25454;49.878;8.618;2022-10-24T09:24:57;28.80;98.70
39779;DHT22;25454;49.878;8.618;2022-10-24T09:29:58;31.10;90.60
39779;DHT22;25454;49.878;8.618;2022-10-24T09:35:02;33.10;70.40
39779;DHT22;25454;49.878;8.618;2022-10-24T09:40:15;31.10;70.50
39779;DHT22;25454;49.878;8.618;2022-10-24T09:45:21;29.80;74.00
39779;DHT22;25454;49.878;8.618;2022-10-24T09:50:27;29.20;76.00
39779;DHT22;25454;49.878;8.618;2022-10-24T09:55:29;28.40;79.00
39779;DHT22;25454;49.878;8.618;2022-10-24T10:00:35;28.60;78.20
39779;DHT22;25454;49.878;8.618;2022-10-24T10:05:47;28.70;78.40
39779;DHT22;25454;49.878;8.618;2022-10-24T10:11:06;28.30;79.50
39779;DHT22;25454;49.878;8.618;2022-10-24T10:16:25;28.80;77.20
39779;DHT22;25454;49.878;8.618;2022-10-24T10:21:27;28.30;78.10
39779;DHT22;25454;49.878;8.618;2022-10-24T10:26:47;29.00;77.20
39779;DHT22;25454;49.878;8.618;2022-10-24T10:42:33;26.50;85.80
39779;DHT22;25454;49.878;8.618;2022-10-24T10:47:56;25.30;90.00
39779;DHT22;25454;49.878;8.618;2022-10-24T11:09:21;32.00;64.50
39779;DHT22;25454;49.878;8.618;2022-10-24T11:14:41;28.10;75.50
39779;DHT22;25454;49.878;8.618;2022-10-24T11:19:51;25.20;86.50
39779;DHT22;25454;49.878;8.618;2022-10-24T11:25:34;24.20;91.10
39779;DHT22;25454;49.878;8.618;2022-10-24T11:30:41;23.60;93.20
39779;DHT22;25454;49.878;8.618;2022-10-24T11:46:41;23.10;96.20
39779;DHT22;25454;49.878;8.618;2022-10-24T11:51:53;23.00;97.40
39779;DHT22;25454;49.878;8.618;2022-10-24T11:57:04;22.80;98.50
39779;DHT22;25454;49.878;8.618;2022-10-24T12:18:55;22.60;99.90
39779;DHT22;25454;49.878;8.618;2022-10-24T12:23:58;22.60;99.90
39779;DHT22;25454;49.878;8.618;2022-10-24T12:29:06;22.40;99.90
39779;DHT22;25454;49.878;8.618;2022-10-24T12:39:29;22.10;99.90
39779;DHT22;25454;49.878;8.618;2022-10-24T12:49:33;21.80;99.90
39779;DHT22;25454;49.878;8.618;2022-10-24T12:54:42;21.80;99.90
39779;DHT22;25454;49.878;8.618;2022-10-24T13:05:10;21.60;99.90
39779;DHT22;25454;49.878;8.618;2022-10-24T13:21:25;21.60;99.90
39779;DHT22;25454;49.878;8.618;2022-10-24T13:26:38;22.00;99.90
39779;DHT22;25454;49.878;8.618;2022-10-24T13:31:42;22.10;99.90
39779;DHT22;25454;49.878;8.618;2022-10-24T13:36:44;21.90;99.90
39779;DHT22;25454;49.878;8.618;2022-10-24T13:41:54;21.70;99.90
39779;DHT22;25454;49.878;8.618;2022-10-24T13:57:33;21.30;99.90
39779;DHT22;25454;49.878;8.618;2022-10-24T14:02:39;21.20;99.90
39779;DHT22;25454;49.878;8.618;2022-10-24T14:07:40;21.10;99.90
39779;DHT22;25454;49.878;8.618;2022-10-24T14:12:42;21.00;99.90
39779;DHT22;25454;49.878;8.618;2022-10-24T14:17:59;20.90;99.90
39779;DHT22;25454;49.878;8.618;2022-10-24T14:23:00;20.80;99.90
39779;DHT22;25454;49.878;8.618;2022-10-24T14:28:15;20.70;99.90
39779;DHT22;25454;49.878;8.618;2022-10-24T14:33:26;20.60;99.90
39779;DHT22;25454;49.878;8.618;2022-10-24T14:38:27;20.60;99.90
39779;DHT22;25454;49.878;8.618;2022-10-24T14:43:29;20.60;99.90
39779;DHT22;25454;49.878;8.618;2022-10-24T14:48:30;20.80;99.90
39779;DHT22;25454;49.878;8.618;2022-10-24T14:53:31;21.10;99.90
39779;DHT22;25454;49.878;8.618;2022-10-24T14:58:34;21.20;99.90
39779;DHT22;25454;49.878;8.618;2022-10-24T15:03:49;21.00;99.90
39779;DHT22;25454;49.878;8.618;2022-10-24T15:09:13;20.70;99.90
39779;DHT22;25454;49.878;8.618;2022-10-24T15:14:50;20.30;99.90
39779;DHT22;25454;49.878;8.618;2022-10-24T15:19:58;19.90;99.90
39779;DHT22;25454;49.878;8.618;2022-10-24T15:25:15;19.80;99.90
39779;DHT22;25454;49.878;8.618;2022-10-24T15:30:18;19.70;99.90
39779;DHT22;25454;49.878;8.618;2022-10-24T15:35:19;19.70;99.90
39779;DHT22;25454;49.878;8.618;2022-10-24T15:40:32;19.60;99.90
39779;DHT22;25454;49.878;8.618;2022-10-24T15:45:33;19.50;99.90
39779;DHT22;25454;49.878;8.618;2022-10-24T15:50:34;19.40;99.90
39779;DHT22;25454;49.878;8.618;2022-10-24T15:55:35;19.30;99.90
39779;DHT22;25454;49.878;8.618;2022-10-24T16:00:35;19.20;99.90
39779;DHT22;25454;49.878;8.618;2022-10-24T16:05:39;19.00;99.90
39779;DHT22;25454;49.878;8.618;2022-10-24T16:10:41;18.90;99.90
39779;DHT22;25454;49.878;8.618;2022-10-24T16:15:43;18.80;99.90
39779;DHT22;25454;49.878;8.618;2022-10-24T16:20:44;18.70;99.90
39779;DHT22;25454;49.878;8.618;2022-10-24T16:25:44;18.70;99.90
39779;DHT22;25454;49.878;8.618;2022-10-24T16:30:45;18.50;99.90
39779;DHT22;25454;49.878;8.618;2022-10-24T16:35:47;18.40;99.90
39779;DHT22;25454;49.878;8.618;2022-10-24T16:40:48;18.30;99.90
39779;DHT22;25454;49.878;8.618;2022-10-24T16:46:00;18.10;99.90
39779;DHT22;25454;49.878;8.618;2022-10-24T16:51:00;17.90;99.90
39779;DHT22;25454;49.878;8.618;2022-10-24T16:56:01;17.80;99.90
39779;DHT22;25454;49.878;8.618;2022-10-24T17:01:10;17.60;99.90
39779;DHT22;25454;49.878;8.618;2022-10-24T17:06:12;17.40;99.90
39779;DHT22;25454;49.878;8.618;2022-10-24T17:11:13;17.30;99.90
39779;DHT22;25454;49.878;8.618;2022-10-24T17:16:14;17.20;99.90
39779;DHT22;25454;49.878;8.618;2022-10-24T17:21:15;17.10;99.90
39779;DHT22;25454;49.878;8.618;2022-10-24T17:26:17;16.90;99.90
39779;DHT22;25454;49.878;8.618;2022-10-24T17:31:18;16.80;99.90
39779;DHT22;25454;49.878;8.618;2022-10-24T17:36:24;16.70;99.90
39779;DHT22;25454;49.878;8.618;2022-10-24T17:41:27;16.60;99.90
39779;DHT22;25454;49.878;8.618;2022-10-24T17:46:30;16.40;99.90
39779;DHT22;25454;49.878;8.618;2022-10-24T17:51:32;16.40;99.90
39779;DHT22;25454;49.878;8.618;2022-10-24T17:56:36;16.30;99.90
39779;DHT22;25454;49.878;8.618;2022-10-24T18:01:37;16.20;99.90
39779;DHT22;25454;49.878;8.618;2022-10-24T18:06:37;16.10;99.90
39779;DHT22;25454;49.878;8.618;2022-10-24T18:11:38;15.90;99.90
39779;DHT22;25454;49.878;8.618;2022-10-24T18:16:39;15.70;99.90
39779;DHT22;25454;49.878;8.618;2022-10-24T18:21:40;15.70;99.90
39779;DHT22;25454;49.878;8.618;2022-10-24T18:26:41;15.60;99.90
39779;DHT22;25454;49.878;8.618;2022-10-24T18:31:41;15.70;99.90
39779;DHT22;25454;49.878;8.618;2022-10-24T18:36:42;15.70;99.90
39779;DHT22;25454;49.878;8.618;2022-10-24T18:42:03;15.70;99.90
39779;DHT22;25454;49.878;8.618;2022-10-24T18:47:12;15.70;99.90
39779;DHT22;25454;49.878;8.618;2022-10-24T18:52:15;15.80;99.90
39779;DHT22;25454;49.878;8.618;2022-10-24T18:57:25;15.90;99.90
39779;DHT22;25454;49.878;8.618;2022-10-24T19:07:35;15.90;99.90
39779;DHT22;25454;49.878;8.618;2022-10-24T19:12:36;15.90;99.90
39779;DHT22;25454;49.878;8.618;2022-10-24T19:17:37;15.90;99.90
39779;DHT22;25454;49.878;8.618;2022-10-24T19:22:37;15.80;99.90
39779;DHT22;25454;49.878;8.618;2022-10-24T19:27:38;15.80;99.90
39779;DHT22;25454;49.878;8.618;2022-10-24T19:32:39;15.70;99.90
39779;DHT22;25454;49.878;8.618;2022-10-24T19:37:40;15.60;99.90
39779;DHT22;25454;49.878;8.618;2022-10-24T19:42:41;15.60;99.90
39779;DHT22;25454;49.878;8.618;2022-10-24T19:47:41;15.60;99.90
39779;DHT22;25454;49.878;8.618;2022-10-24T19:52:42;15.60;99.90
39779;DHT22;25454;49.878;8.618;2022-10-24T19:57:42;15.50;99.90
39779;DHT22;25454;49.878;8.618;2022-10-24T20:02:43;15.60;99.90
39779;DHT22;25454;49.878;8.618;2022-10-24T20:07:44;15.60;99.90
39779;DHT22;25454;49.878;8.618;2022-10-24T20:12:46;15.60;99.90
39779;DHT22;25454;49.878;8.618;2022-10-24T20:17:46;15.60;99.90
39779;DHT22;25454;49.878;8.618;2022-10-24T20:22:47;15.60;99.90
39779;DHT22;25454;49.878;8.618;2022-10-24T20:27:48;15.60;99.90
39779;DHT22;25454;49.878;8.618;2022-10-24T20:32:49;15.50;99.90
39779;DHT22;25454;49.878;8.618;2022-10-24T20:37:49;15.40;99.90
39779;DHT22;25454;49.878;8.618;2022-10-24T20:42:51;15.40;99.90
39779;DHT22;25454;49.878;8.618;2022-10-24T20:47:51;15.30;99.90
39779;DHT22;25454;49.878;8.618;2022-10-24T20:52:52;15.30;99.90
39779;DHT22;25454;49.878;8.618;2022-10-24T20:57:53;15.20;99.90
39779;DHT22;25454;49.878;8.618;2022-10-24T21:02:53;15.10;99.90
39779;DHT22;25454;49.878;8.618;2022-10-24T21:07:54;15.00;99.90
39779;DHT22;25454;49.878;8.618;2022-10-24T21:12:55;15.00;99.90
39779;DHT22;25454;49.878;8.618;2022-10-24T21:17:56;14.90;99.90
39779;DHT22;25454;49.878;8.618;2022-10-24T21:22:56;14.80;99.90
39779;DHT22;25454;49.878;8.618;2022-10-24T21:27:57;14.70;99.90
39779;DHT22;25454;49.878;8.618;2022-10-24T21:32:59;14.70;99.90
39779;DHT22;25454;49.878;8.618;2022-10-24T21:37:59;14.50;99.90
39779;DHT22;25454;49.878;8.618;2022-10-24T21:43:00;14.50;99.90
39779;DHT22;25454;49.878;8.618;2022-10-24T21:48:01;14.40;99.90
39779;DHT22;25454;49.878;8.618;2022-10-24T21:53:01;14.40;99.90
39779;DHT22;25454;49.878;8.618;2022-10-24T21:58:03;14.40;99.90
39779;DHT22;25454;49.878;8.618;2022-10-24T22:03:04;14.30;99.90
39779;DHT22;25454;49.878;8.618;2022-10-24T22:08:04;14.30;99.90
39779;DHT22;25454;49.878;8.618;2022-10-24T22:13:06;14.30;99.90
39779;DHT22;25454;49.878;8.618;2022-10-24T22:18:06;14.20;99.90
39779;DHT22;25454;49.878;8.618;2022-10-24T22:23:07;14.10;99.90
39779;DHT22;25454;49.878;8.618;2022-10-24T22:28:07;14.10;99.90
39779;DHT22;25454;49.878;8.618;2022-10-24T22:33:21;14.00;99.90
39779;DHT22;25454;49.878;8.618;2022-10-24T22:38:27;14.00;99.90
39779;DHT22;25454;49.878;8.618;2022-10-24T22:43:28;14.00;99.90
39779;DHT22;25454;49.878;8.618;2022-10-24T22:48:30;13.90;99.90
39779;DHT22;25454;49.878;8.618;2022-10-24T22:53:32;13.90;99.90
39779;DHT22;25454;49.878;8.618;2022-10-24T22:58:33;13.90;99.90
39779;DHT22;25454;49.878;8.618;2022-10-24T23:08:49;13.90;99.90
39779;DHT22;25454;49.878;8.618;2022-10-24T23:13:50;13.80;99.90
39779;DHT22;25454;49.878;8.618;2022-10-24T23:18:51;13.80;99.90
39779;DHT22;25454;49.878;8.618;2022-10-24T23:23:54;13.80;99.90
39779;DHT22;25454;49.878;8.618;2022-10-24T23:29:27;13.70;99.90
39779;DHT22;25454;49.878;8.618;2022-10-24T23:34:29;13.60;99.90
39779;DHT22;25454;49.878;8.618;2022-10-24T23:39:33;13.60;99.90
39779;DHT22;25454;49.878;8.618;2022-10-24T23:44:34;13.50;99.90
39779;DHT22;25454;49.878;8.618;2022-10-24T23:49:39;13.50;99.90
39779;DHT22;25454;49.878;8.618;2022-10-24T23:54:44;13.50;99.90
39779;DHT22;25454;49.878;8.618;2022-10-24T23:59:45;13.50;99.90
